sensor_id;sensor_type;location;lat;lon;timestamp;P1;durP1;ratioP1;P2;durP2;ratioP2
6868;SDS011;3473;42.604;23.496;2022-10-16T00:01:29;4.33;;;1.50;;
6868;SDS011;3473;42.604;23.496;2022-10-16T00:02:59;1.53;;;1.10;;
6868;SDS011;3473;42.604;23.496;2022-10-16T00:04:31;1.43;;;0.90;;
6868;SDS011;3473;42.604;23.496;2022-10-16T00:06:02;1.47;;;1.23;;
6868;SDS011;3473;42.604;23.496;2022-10-16T00:07:33;1.20;;;0.93;;
6868;SDS011;3473;42.604;23.496;2022-10-16T00:09:05;2.40;;;1.07;;
6868;SDS011;3473;42.604;23.496;2022-10-16T00:10:36;1.83;;;0.93;;
6868;SDS011;3473;42.604;23.496;2022-10-16T00:12:07;1.40;;;1.27;;
6868;SDS011;3473;42.604;23.496;2022-10-16T00:13:40;3.53;;;1.90;;
6868;SDS011;3473;42.604;23.496;2022-10-16T00:15:12;1.67;;;1.00;;
6868;SDS011;3473;42.604;23.496;2022-10-16T00:16:43;1.23;;;1.13;;
6868;SDS011;3473;42.604;23.496;2022-10-16T00:18:14;1.67;;;1.17;;
6868;SDS011;3473;42.604;23.496;2022-10-16T00:19:46;0.73;;;0.73;;
6868;SDS011;3473;42.604;23.496;2022-10-16T00:21:18;1.90;;;1.17;;
6868;SDS011;3473;42.604;23.496;2022-10-16T00:22:50;1.23;;;1.13;;
6868;SDS011;3473;42.604;23.496;2022-10-16T00:24:21;2.43;;;1.20;;
6868;SDS011;3473;42.604;23.496;2022-10-16T00:25:56;2.80;;;0.97;;
6868;SDS011;3473;42.604;23.496;2022-10-16T00:27:27;2.03;;;1.00;;
6868;SDS011;3473;42.604;23.496;2022-10-16T00:28:59;2.27;;;1.03;;
6868;SDS011;3473;42.604;23.496;2022-10-16T00:30:31;2.07;;;1.37;;
6868;SDS011;3473;42.604;23.496;2022-10-16T00:32:02;1.63;;;1.10;;
6868;SDS011;3473;42.604;23.496;2022-10-16T00:33:34;1.50;;;0.87;;
6868;SDS011;3473;42.604;23.496;2022-10-16T00:35:05;1.80;;;1.07;;
6868;SDS011;3473;42.604;23.496;2022-10-16T00:36:37;1.83;;;0.67;;
6868;SDS011;3473;42.604;23.496;2022-10-16T00:38:08;2.50;;;1.13;;
6868;SDS011;3473;42.604;23.496;2022-10-16T00:39:40;1.20;;;1.00;;
6868;SDS011;3473;42.604;23.496;2022-10-16T00:41:14;1.70;;;0.93;;
6868;SDS011;3473;42.604;23.496;2022-10-16T00:42:44;1.03;;;0.80;;
6868;SDS011;3473;42.604;23.496;2022-10-16T00:46:10;1.70;;;1.00;;
6868;SDS011;3473;42.604;23.496;2022-10-16T00:47:44;2.33;;;1.37;;
6868;SDS011;3473;42.604;23.496;2022-10-16T00:49:19;1.60;;;1.03;;
6868;SDS011;3473;42.604;23.496;2022-10-16T00:50:51;2.17;;;0.97;;
6868;SDS011;3473;42.604;23.496;2022-10-16T00:52:22;0.70;;;0.70;;
6868;SDS011;3473;42.604;23.496;2022-10-16T00:53:54;0.87;;;0.60;;
6868;SDS011;3473;42.604;23.496;2022-10-16T00:55:25;3.40;;;0.90;;
6868;SDS011;3473;42.604;23.496;2022-10-16T00:56:58;1.73;;;0.60;;
6868;SDS011;3473;42.604;23.496;2022-10-16T00:58:31;0.90;;;0.80;;
6868;SDS011;3473;42.604;23.496;2022-10-16T01:00:03;0.67;;;0.60;;
6868;SDS011;3473;42.604;23.496;2022-10-16T01:01:36;1.23;;;0.93;;
6868;SDS011;3473;42.604;23.496;2022-10-16T01:03:22;2.87;;;1.37;;
6868;SDS011;3473;42.604;23.496;2022-10-16T01:04:54;1.17;;;0.90;;
6868;SDS011;3473;42.604;23.496;2022-10-16T01:06:28;2.63;;;1.63;;
6868;SDS011;3473;42.604;23.496;2022-10-16T01:08:04;7.40;;;1.63;;
6868;SDS011;3473;42.604;23.496;2022-10-16T01:09:39;2.23;;;0.80;;
6868;SDS011;3473;42.604;23.496;2022-10-16T01:11:15;2.00;;;1.37;;
6868;SDS011;3473;42.604;23.496;2022-10-16T01:12:50;1.43;;;0.93;;
6868;SDS011;3473;42.604;23.496;2022-10-16T01:14:25;0.87;;;0.77;;
6868;SDS011;3473;42.604;23.496;2022-10-16T01:15:59;1.30;;;1.03;;
6868;SDS011;3473;42.604;23.496;2022-10-16T01:17:34;3.87;;;0.63;;
6868;SDS011;3473;42.604;23.496;2022-10-16T01:19:08;0.93;;;0.80;;
6868;SDS011;3473;42.604;23.496;2022-10-16T01:20:40;0.83;;;0.83;;
6868;SDS011;3473;42.604;23.496;2022-10-16T01:22:13;2.43;;;1.20;;
6868;SDS011;3473;42.604;23.496;2022-10-16T01:23:47;2.00;;;1.13;;
6868;SDS011;3473;42.604;23.496;2022-10-16T01:25:23;4.63;;;0.67;;
6868;SDS011;3473;42.604;23.496;2022-10-16T01:27:13;2.07;;;1.13;;
6868;SDS011;3473;42.604;23.496;2022-10-16T01:28:47;0.60;;;0.60;;
6868;SDS011;3473;42.604;23.496;2022-10-16T01:30:21;1.13;;;0.60;;
6868;SDS011;3473;42.604;23.496;2022-10-16T01:31:56;1.97;;;0.93;;
6868;SDS011;3473;42.604;23.496;2022-10-16T01:33:30;2.13;;;1.00;;
6868;SDS011;3473;42.604;23.496;2022-10-16T01:35:05;1.17;;;0.97;;
6868;SDS011;3473;42.604;23.496;2022-10-16T01:36:41;1.63;;;1.13;;
6868;SDS011;3473;42.604;23.496;2022-10-16T01:38:12;1.13;;;0.73;;
6868;SDS011;3473;42.604;23.496;2022-10-16T01:39:47;1.67;;;1.17;;
6868;SDS011;3473;42.604;23.496;2022-10-16T01:41:21;1.80;;;0.70;;
6868;SDS011;3473;42.604;23.496;2022-10-16T01:42:58;1.13;;;0.87;;
6868;SDS011;3473;42.604;23.496;2022-10-16T01:44:30;1.70;;;0.70;;
6868;SDS011;3473;42.604;23.496;2022-10-16T01:46:03;0.67;;;0.53;;
6868;SDS011;3473;42.604;23.496;2022-10-16T01:47:36;1.13;;;0.80;;
6868;SDS011;3473;42.604;23.496;2022-10-16T01:49:06;0.80;;;0.57;;
6868;SDS011;3473;42.604;23.496;2022-10-16T01:50:39;1.37;;;0.87;;
6868;SDS011;3473;42.604;23.496;2022-10-16T01:52:12;3.00;;;0.90;;
6868;SDS011;3473;42.604;23.496;2022-10-16T01:53:46;0.60;;;0.60;;
6868;SDS011;3473;42.604;23.496;2022-10-16T01:55:21;0.57;;;0.57;;
6868;SDS011;3473;42.604;23.496;2022-10-16T01:56:53;1.47;;;1.00;;
6868;SDS011;3473;42.604;23.496;2022-10-16T01:58:27;1.37;;;0.70;;
6868;SDS011;3473;42.604;23.496;2022-10-16T02:00:05;3.00;;;0.63;;
6868;SDS011;3473;42.604;23.496;2022-10-16T02:01:38;1.40;;;1.13;;
6868;SDS011;3473;42.604;23.496;2022-10-16T02:03:11;1.00;;;0.87;;
6868;SDS011;3473;42.604;23.496;2022-10-16T02:04:44;1.07;;;0.77;;
6868;SDS011;3473;42.604;23.496;2022-10-16T02:06:16;1.60;;;0.73;;
6868;SDS011;3473;42.604;23.496;2022-10-16T02:07:48;1.80;;;0.87;;
6868;SDS011;3473;42.604;23.496;2022-10-16T02:09:19;2.20;;;1.23;;
6868;SDS011;3473;42.604;23.496;2022-10-16T02:10:51;2.53;;;0.97;;
6868;SDS011;3473;42.604;23.496;2022-10-16T02:12:24;1.87;;;1.10;;
6868;SDS011;3473;42.604;23.496;2022-10-16T02:13:58;1.70;;;1.33;;
6868;SDS011;3473;42.604;23.496;2022-10-16T02:15:30;1.13;;;1.03;;
6868;SDS011;3473;42.604;23.496;2022-10-16T02:17:01;0.83;;;0.77;;
6868;SDS011;3473;42.604;23.496;2022-10-16T02:18:33;2.33;;;1.33;;
6868;SDS011;3473;42.604;23.496;2022-10-16T02:20:05;2.43;;;1.03;;
6868;SDS011;3473;42.604;23.496;2022-10-16T02:21:39;1.20;;;0.97;;
6868;SDS011;3473;42.604;23.496;2022-10-16T02:23:12;2.20;;;1.40;;
6868;SDS011;3473;42.604;23.496;2022-10-16T02:24:47;3.60;;;0.90;;
6868;SDS011;3473;42.604;23.496;2022-10-16T02:26:21;1.87;;;1.13;;
6868;SDS011;3473;42.604;23.496;2022-10-16T02:27:57;1.23;;;0.93;;
6868;SDS011;3473;42.604;23.496;2022-10-16T02:29:33;0.83;;;0.63;;
6868;SDS011;3473;42.604;23.496;2022-10-16T02:31:08;1.73;;;1.20;;
6868;SDS011;3473;42.604;23.496;2022-10-16T02:32:42;2.20;;;1.03;;
6868;SDS011;3473;42.604;23.496;2022-10-16T02:34:14;3.00;;;1.17;;
6868;SDS011;3473;42.604;23.496;2022-10-16T02:35:47;1.07;;;0.67;;
6868;SDS011;3473;42.604;23.496;2022-10-16T02:37:20;1.33;;;0.90;;
6868;SDS011;3473;42.604;23.496;2022-10-16T02:38:52;1.20;;;0.70;;
6868;SDS011;3473;42.604;23.496;2022-10-16T02:40:24;1.90;;;1.27;;
6868;SDS011;3473;42.604;23.496;2022-10-16T02:41:56;0.90;;;0.60;;
6868;SDS011;3473;42.604;23.496;2022-10-16T02:43:27;5.37;;;1.40;;
6868;SDS011;3473;42.604;23.496;2022-10-16T02:45:01;2.53;;;1.67;;
6868;SDS011;3473;42.604;23.496;2022-10-16T02:46:31;1.83;;;0.87;;
6868;SDS011;3473;42.604;23.496;2022-10-16T02:48:03;1.43;;;1.10;;
6868;SDS011;3473;42.604;23.496;2022-10-16T02:49:34;4.13;;;1.40;;
6868;SDS011;3473;42.604;23.496;2022-10-16T02:51:05;2.17;;;1.50;;
6868;SDS011;3473;42.604;23.496;2022-10-16T02:52:37;4.67;;;1.20;;
6868;SDS011;3473;42.604;23.496;2022-10-16T02:54:07;1.30;;;1.07;;
6868;SDS011;3473;42.604;23.496;2022-10-16T02:55:39;1.83;;;1.23;;
6868;SDS011;3473;42.604;23.496;2022-10-16T02:57:10;2.00;;;1.43;;
6868;SDS011;3473;42.604;23.496;2022-10-16T02:58:41;2.10;;;1.23;;
6868;SDS011;3473;42.604;23.496;2022-10-16T03:00:15;1.60;;;1.43;;
6868;SDS011;3473;42.604;23.496;2022-10-16T03:01:47;1.20;;;0.80;;
6868;SDS011;3473;42.604;23.496;2022-10-16T03:03:17;3.33;;;1.30;;
6868;SDS011;3473;42.604;23.496;2022-10-16T03:04:49;1.43;;;1.23;;
6868;SDS011;3473;42.604;23.496;2022-10-16T03:06:19;4.87;;;1.83;;
6868;SDS011;3473;42.604;23.496;2022-10-16T03:07:51;6.60;;;2.10;;
6868;SDS011;3473;42.604;23.496;2022-10-16T03:09:22;7.77;;;3.50;;
6868;SDS011;3473;42.604;23.496;2022-10-16T03:10:54;6.43;;;3.17;;
6868;SDS011;3473;42.604;23.496;2022-10-16T03:12:25;11.07;;;4.17;;
6868;SDS011;3473;42.604;23.496;2022-10-16T03:13:57;6.17;;;3.43;;
6868;SDS011;3473;42.604;23.496;2022-10-16T03:15:29;3.20;;;2.37;;
6868;SDS011;3473;42.604;23.496;2022-10-16T03:17:00;2.97;;;2.10;;
6868;SDS011;3473;42.604;23.496;2022-10-16T03:18:31;2.50;;;1.90;;
6868;SDS011;3473;42.604;23.496;2022-10-16T03:20:02;2.60;;;1.90;;
6868;SDS011;3473;42.604;23.496;2022-10-16T03:21:33;1.67;;;1.30;;
6868;SDS011;3473;42.604;23.496;2022-10-16T03:23:04;4.23;;;1.93;;
6868;SDS011;3473;42.604;23.496;2022-10-16T03:24:38;4.07;;;2.27;;
6868;SDS011;3473;42.604;23.496;2022-10-16T03:26:09;4.23;;;2.27;;
6868;SDS011;3473;42.604;23.496;2022-10-16T03:27:41;2.87;;;1.70;;
6868;SDS011;3473;42.604;23.496;2022-10-16T03:29:12;3.53;;;1.60;;
6868;SDS011;3473;42.604;23.496;2022-10-16T03:30:45;1.10;;;0.90;;
6868;SDS011;3473;42.604;23.496;2022-10-16T03:32:16;3.70;;;1.70;;
6868;SDS011;3473;42.604;23.496;2022-10-16T03:33:48;1.27;;;0.87;;
6868;SDS011;3473;42.604;23.496;2022-10-16T03:35:20;1.07;;;0.80;;
6868;SDS011;3473;42.604;23.496;2022-10-16T03:36:51;0.57;;;0.57;;
6868;SDS011;3473;42.604;23.496;2022-10-16T03:38:23;1.27;;;0.80;;
6868;SDS011;3473;42.604;23.496;2022-10-16T03:39:54;0.63;;;0.63;;
6868;SDS011;3473;42.604;23.496;2022-10-16T03:41:26;1.97;;;0.90;;
6868;SDS011;3473;42.604;23.496;2022-10-16T03:42:57;1.10;;;0.73;;
6868;SDS011;3473;42.604;23.496;2022-10-16T03:44:28;1.23;;;0.93;;
6868;SDS011;3473;42.604;23.496;2022-10-16T03:46:00;1.13;;;1.03;;
6868;SDS011;3473;42.604;23.496;2022-10-16T03:47:32;1.30;;;0.97;;
6868;SDS011;3473;42.604;23.496;2022-10-16T03:49:03;1.70;;;0.90;;
6868;SDS011;3473;42.604;23.496;2022-10-16T03:50:35;1.20;;;0.73;;
6868;SDS011;3473;42.604;23.496;2022-10-16T03:52:06;1.10;;;1.00;;
6868;SDS011;3473;42.604;23.496;2022-10-16T03:53:38;1.67;;;0.50;;
6868;SDS011;3473;42.604;23.496;2022-10-16T03:55:09;1.73;;;1.10;;
6868;SDS011;3473;42.604;23.496;2022-10-16T03:56:41;2.80;;;1.13;;
6868;SDS011;3473;42.604;23.496;2022-10-16T03:58:12;1.93;;;0.87;;
6868;SDS011;3473;42.604;23.496;2022-10-16T03:59:44;1.10;;;0.77;;
6868;SDS011;3473;42.604;23.496;2022-10-16T04:01:17;3.00;;;0.80;;
6868;SDS011;3473;42.604;23.496;2022-10-16T04:02:48;2.17;;;1.10;;
6868;SDS011;3473;42.604;23.496;2022-10-16T04:04:20;2.63;;;0.77;;
6868;SDS011;3473;42.604;23.496;2022-10-16T04:05:51;0.73;;;0.73;;
6868;SDS011;3473;42.604;23.496;2022-10-16T04:07:22;2.37;;;1.23;;
6868;SDS011;3473;42.604;23.496;2022-10-16T04:08:54;2.67;;;1.73;;
6868;SDS011;3473;42.604;23.496;2022-10-16T04:10:26;1.67;;;1.20;;
6868;SDS011;3473;42.604;23.496;2022-10-16T04:11:57;1.20;;;0.53;;
6868;SDS011;3473;42.604;23.496;2022-10-16T04:13:29;2.50;;;1.47;;
6868;SDS011;3473;42.604;23.496;2022-10-16T04:14:59;0.83;;;0.83;;
6868;SDS011;3473;42.604;23.496;2022-10-16T04:16:32;0.93;;;0.90;;
6868;SDS011;3473;42.604;23.496;2022-10-16T04:18:03;4.37;;;1.43;;
6868;SDS011;3473;42.604;23.496;2022-10-16T04:19:34;2.20;;;1.27;;
6868;SDS011;3473;42.604;23.496;2022-10-16T04:21:06;2.87;;;1.03;;
6868;SDS011;3473;42.604;23.496;2022-10-16T04:22:37;1.83;;;0.97;;
6868;SDS011;3473;42.604;23.496;2022-10-16T04:24:08;0.83;;;0.80;;
6868;SDS011;3473;42.604;23.496;2022-10-16T04:25:40;2.40;;;1.33;;
6868;SDS011;3473;42.604;23.496;2022-10-16T04:27:11;2.00;;;1.27;;
6868;SDS011;3473;42.604;23.496;2022-10-16T04:28:42;1.00;;;0.80;;
6868;SDS011;3473;42.604;23.496;2022-10-16T04:30:14;2.70;;;0.87;;
6868;SDS011;3473;42.604;23.496;2022-10-16T04:31:47;2.17;;;1.60;;
6868;SDS011;3473;42.604;23.496;2022-10-16T04:33:19;1.83;;;1.20;;
6868;SDS011;3473;42.604;23.496;2022-10-16T04:34:50;2.53;;;1.33;;
6868;SDS011;3473;42.604;23.496;2022-10-16T04:36:22;3.57;;;1.40;;
6868;SDS011;3473;42.604;23.496;2022-10-16T04:37:53;3.83;;;1.33;;
6868;SDS011;3473;42.604;23.496;2022-10-16T04:39:25;2.20;;;1.50;;
6868;SDS011;3473;42.604;23.496;2022-10-16T04:40:56;4.73;;;1.73;;
6868;SDS011;3473;42.604;23.496;2022-10-16T04:42:28;5.57;;;2.37;;
6868;SDS011;3473;42.604;23.496;2022-10-16T04:43:59;3.53;;;2.20;;
6868;SDS011;3473;42.604;23.496;2022-10-16T04:45:31;4.03;;;2.10;;
6868;SDS011;3473;42.604;23.496;2022-10-16T04:47:02;3.03;;;1.30;;
6868;SDS011;3473;42.604;23.496;2022-10-16T04:48:34;2.40;;;1.37;;
6868;SDS011;3473;42.604;23.496;2022-10-16T04:50:06;1.17;;;1.07;;
6868;SDS011;3473;42.604;23.496;2022-10-16T04:51:38;2.37;;;1.43;;
6868;SDS011;3473;42.604;23.496;2022-10-16T04:53:09;1.30;;;0.67;;
6868;SDS011;3473;42.604;23.496;2022-10-16T04:54:41;3.27;;;1.80;;
6868;SDS011;3473;42.604;23.496;2022-10-16T04:56:14;4.87;;;1.17;;
6868;SDS011;3473;42.604;23.496;2022-10-16T04:57:45;1.30;;;1.20;;
6868;SDS011;3473;42.604;23.496;2022-10-16T04:59:17;1.60;;;1.33;;
6868;SDS011;3473;42.604;23.496;2022-10-16T05:00:48;3.60;;;1.30;;
6868;SDS011;3473;42.604;23.496;2022-10-16T05:02:21;1.30;;;1.10;;
6868;SDS011;3473;42.604;23.496;2022-10-16T05:03:53;1.63;;;1.30;;
6868;SDS011;3473;42.604;23.496;2022-10-16T05:05:24;1.10;;;0.93;;
6868;SDS011;3473;42.604;23.496;2022-10-16T05:06:56;1.00;;;0.90;;
6868;SDS011;3473;42.604;23.496;2022-10-16T05:08:27;1.40;;;1.20;;
6868;SDS011;3473;42.604;23.496;2022-10-16T05:09:59;1.50;;;1.10;;
6868;SDS011;3473;42.604;23.496;2022-10-16T05:11:31;3.37;;;1.53;;
6868;SDS011;3473;42.604;23.496;2022-10-16T05:13:02;2.00;;;1.10;;
6868;SDS011;3473;42.604;23.496;2022-10-16T05:14:34;12.93;;;1.87;;
6868;SDS011;3473;42.604;23.496;2022-10-16T05:16:05;1.13;;;1.03;;
6868;SDS011;3473;42.604;23.496;2022-10-16T05:17:38;4.23;;;1.63;;
6868;SDS011;3473;42.604;23.496;2022-10-16T05:19:10;3.90;;;1.70;;
6868;SDS011;3473;42.604;23.496;2022-10-16T05:20:41;5.07;;;2.13;;
6868;SDS011;3473;42.604;23.496;2022-10-16T05:22:13;6.83;;;1.87;;
6868;SDS011;3473;42.604;23.496;2022-10-16T05:23:44;2.70;;;1.80;;
6868;SDS011;3473;42.604;23.496;2022-10-16T05:25:15;3.27;;;1.90;;
6868;SDS011;3473;42.604;23.496;2022-10-16T05:26:47;2.30;;;1.33;;
6868;SDS011;3473;42.604;23.496;2022-10-16T05:28:18;2.30;;;1.33;;
6868;SDS011;3473;42.604;23.496;2022-10-16T05:29:50;3.07;;;1.70;;
6868;SDS011;3473;42.604;23.496;2022-10-16T05:31:21;2.70;;;1.50;;
6868;SDS011;3473;42.604;23.496;2022-10-16T05:32:54;2.13;;;1.10;;
6868;SDS011;3473;42.604;23.496;2022-10-16T05:34:26;2.07;;;1.53;;
6868;SDS011;3473;42.604;23.496;2022-10-16T05:36:00;2.73;;;1.70;;
6868;SDS011;3473;42.604;23.496;2022-10-16T05:37:31;1.80;;;1.60;;
6868;SDS011;3473;42.604;23.496;2022-10-16T05:39:02;2.37;;;1.70;;
6868;SDS011;3473;42.604;23.496;2022-10-16T05:40:34;2.13;;;1.03;;
6868;SDS011;3473;42.604;23.496;2022-10-16T05:42:05;4.97;;;1.73;;
6868;SDS011;3473;42.604;23.496;2022-10-16T05:43:37;4.10;;;1.40;;
6868;SDS011;3473;42.604;23.496;2022-10-16T05:45:09;5.63;;;1.40;;
6868;SDS011;3473;42.604;23.496;2022-10-16T05:46:41;2.17;;;1.23;;
6868;SDS011;3473;42.604;23.496;2022-10-16T05:48:14;3.27;;;1.30;;
6868;SDS011;3473;42.604;23.496;2022-10-16T05:49:45;4.07;;;1.77;;
6868;SDS011;3473;42.604;23.496;2022-10-16T05:51:17;8.57;;;1.73;;
6868;SDS011;3473;42.604;23.496;2022-10-16T05:52:50;3.23;;;1.30;;
6868;SDS011;3473;42.604;23.496;2022-10-16T05:54:22;4.83;;;1.93;;
6868;SDS011;3473;42.604;23.496;2022-10-16T05:55:53;4.33;;;2.40;;
6868;SDS011;3473;42.604;23.496;2022-10-16T05:57:24;4.20;;;2.23;;
6868;SDS011;3473;42.604;23.496;2022-10-16T05:58:56;4.63;;;2.13;;
6868;SDS011;3473;42.604;23.496;2022-10-16T06:00:27;5.67;;;2.20;;
6868;SDS011;3473;42.604;23.496;2022-10-16T06:01:58;5.20;;;2.20;;
6868;SDS011;3473;42.604;23.496;2022-10-16T06:03:31;4.77;;;1.70;;
6868;SDS011;3473;42.604;23.496;2022-10-16T06:05:01;5.97;;;1.43;;
6868;SDS011;3473;42.604;23.496;2022-10-16T06:06:33;2.90;;;1.93;;
6868;SDS011;3473;42.604;23.496;2022-10-16T06:08:03;3.83;;;2.47;;
6868;SDS011;3473;42.604;23.496;2022-10-16T06:09:35;3.13;;;2.13;;
6868;SDS011;3473;42.604;23.496;2022-10-16T06:11:07;3.97;;;2.50;;
6868;SDS011;3473;42.604;23.496;2022-10-16T06:12:38;4.27;;;2.10;;
6868;SDS011;3473;42.604;23.496;2022-10-16T06:14:09;7.43;;;2.23;;
6868;SDS011;3473;42.604;23.496;2022-10-16T06:15:41;2.70;;;1.40;;
6868;SDS011;3473;42.604;23.496;2022-10-16T06:17:12;4.33;;;1.80;;
6868;SDS011;3473;42.604;23.496;2022-10-16T06:18:45;2.30;;;1.53;;
6868;SDS011;3473;42.604;23.496;2022-10-16T06:20:16;6.17;;;1.83;;
6868;SDS011;3473;42.604;23.496;2022-10-16T06:21:48;1.60;;;1.27;;
6868;SDS011;3473;42.604;23.496;2022-10-16T06:23:19;2.80;;;1.67;;
6868;SDS011;3473;42.604;23.496;2022-10-16T06:24:50;2.60;;;1.20;;
6868;SDS011;3473;42.604;23.496;2022-10-16T06:26:22;1.97;;;1.40;;
6868;SDS011;3473;42.604;23.496;2022-10-16T06:27:54;3.10;;;1.80;;
6868;SDS011;3473;42.604;23.496;2022-10-16T06:29:25;2.23;;;1.30;;
6868;SDS011;3473;42.604;23.496;2022-10-16T06:30:58;2.83;;;1.67;;
6868;SDS011;3473;42.604;23.496;2022-10-16T06:32:29;2.83;;;1.90;;
6868;SDS011;3473;42.604;23.496;2022-10-16T06:34:02;2.23;;;1.50;;
6868;SDS011;3473;42.604;23.496;2022-10-16T06:35:34;5.57;;;2.53;;
6868;SDS011;3473;42.604;23.496;2022-10-16T06:37:06;1.70;;;1.60;;
6868;SDS011;3473;42.604;23.496;2022-10-16T06:38:38;3.73;;;1.60;;
6868;SDS011;3473;42.604;23.496;2022-10-16T06:40:09;4.53;;;2.17;;
6868;SDS011;3473;42.604;23.496;2022-10-16T06:41:41;2.73;;;1.33;;
6868;SDS011;3473;42.604;23.496;2022-10-16T06:43:12;2.53;;;1.77;;
6868;SDS011;3473;42.604;23.496;2022-10-16T06:44:43;4.13;;;2.33;;
6868;SDS011;3473;42.604;23.496;2022-10-16T06:46:15;2.97;;;2.00;;
6868;SDS011;3473;42.604;23.496;2022-10-16T06:47:47;1.80;;;1.53;;
6868;SDS011;3473;42.604;23.496;2022-10-16T06:49:20;2.17;;;1.70;;
6868;SDS011;3473;42.604;23.496;2022-10-16T06:50:56;3.33;;;1.73;;
6868;SDS011;3473;42.604;23.496;2022-10-16T06:52:28;3.40;;;2.03;;
6868;SDS011;3473;42.604;23.496;2022-10-16T06:53:59;2.23;;;1.33;;
6868;SDS011;3473;42.604;23.496;2022-10-16T06:55:31;2.13;;;1.67;;
6868;SDS011;3473;42.604;23.496;2022-10-16T06:57:01;2.60;;;1.50;;
6868;SDS011;3473;42.604;23.496;2022-10-16T06:58:33;4.27;;;2.07;;
6868;SDS011;3473;42.604;23.496;2022-10-16T07:00:05;2.73;;;1.60;;
6868;SDS011;3473;42.604;23.496;2022-10-16T07:01:37;3.30;;;1.60;;
6868;SDS011;3473;42.604;23.496;2022-10-16T07:03:08;2.47;;;1.63;;
6868;SDS011;3473;42.604;23.496;2022-10-16T07:04:40;3.20;;;1.60;;
6868;SDS011;3473;42.604;23.496;2022-10-16T07:06:12;3.97;;;2.20;;
6868;SDS011;3473;42.604;23.496;2022-10-16T07:07:43;2.97;;;2.10;;
6868;SDS011;3473;42.604;23.496;2022-10-16T07:09:15;3.13;;;1.87;;
6868;SDS011;3473;42.604;23.496;2022-10-16T07:10:46;3.27;;;1.87;;
6868;SDS011;3473;42.604;23.496;2022-10-16T07:12:17;3.77;;;1.90;;
6868;SDS011;3473;42.604;23.496;2022-10-16T07:13:49;2.70;;;2.03;;
6868;SDS011;3473;42.604;23.496;2022-10-16T07:15:19;3.23;;;2.13;;
6868;SDS011;3473;42.604;23.496;2022-10-16T07:16:51;1.50;;;1.40;;
6868;SDS011;3473;42.604;23.496;2022-10-16T07:18:23;2.93;;;1.77;;
6868;SDS011;3473;42.604;23.496;2022-10-16T07:19:58;1.63;;;1.43;;
6868;SDS011;3473;42.604;23.496;2022-10-16T07:21:30;1.87;;;1.60;;
6868;SDS011;3473;42.604;23.496;2022-10-16T07:23:05;2.80;;;1.80;;
6868;SDS011;3473;42.604;23.496;2022-10-16T07:24:36;2.73;;;1.70;;
6868;SDS011;3473;42.604;23.496;2022-10-16T07:26:08;2.57;;;1.70;;
6868;SDS011;3473;42.604;23.496;2022-10-16T07:27:40;3.03;;;2.00;;
6868;SDS011;3473;42.604;23.496;2022-10-16T07:29:12;3.63;;;2.10;;
6868;SDS011;3473;42.604;23.496;2022-10-16T07:30:44;2.60;;;1.70;;
6868;SDS011;3473;42.604;23.496;2022-10-16T07:32:16;2.37;;;1.60;;
6868;SDS011;3473;42.604;23.496;2022-10-16T07:33:47;2.77;;;1.90;;
6868;SDS011;3473;42.604;23.496;2022-10-16T07:35:20;2.33;;;1.60;;
6868;SDS011;3473;42.604;23.496;2022-10-16T07:36:51;4.83;;;2.27;;
6868;SDS011;3473;42.604;23.496;2022-10-16T07:38:23;3.17;;;1.80;;
6868;SDS011;3473;42.604;23.496;2022-10-16T07:39:53;4.53;;;2.63;;
6868;SDS011;3473;42.604;23.496;2022-10-16T07:41:25;3.17;;;1.97;;
6868;SDS011;3473;42.604;23.496;2022-10-16T07:42:56;2.33;;;1.50;;
6868;SDS011;3473;42.604;23.496;2022-10-16T07:44:28;3.63;;;2.00;;
6868;SDS011;3473;42.604;23.496;2022-10-16T07:45:59;3.23;;;1.97;;
6868;SDS011;3473;42.604;23.496;2022-10-16T07:47:31;2.70;;;1.97;;
6868;SDS011;3473;42.604;23.496;2022-10-16T07:49:02;6.97;;;2.03;;
6868;SDS011;3473;42.604;23.496;2022-10-16T07:50:35;1.63;;;1.27;;
6868;SDS011;3473;42.604;23.496;2022-10-16T07:52:07;2.87;;;1.70;;
6868;SDS011;3473;42.604;23.496;2022-10-16T07:53:39;2.53;;;1.60;;
6868;SDS011;3473;42.604;23.496;2022-10-16T07:55:10;4.97;;;2.10;;
6868;SDS011;3473;42.604;23.496;2022-10-16T07:56:42;1.70;;;1.50;;
6868;SDS011;3473;42.604;23.496;2022-10-16T07:58:13;3.10;;;1.73;;
6868;SDS011;3473;42.604;23.496;2022-10-16T07:59:45;3.23;;;1.63;;
6868;SDS011;3473;42.604;23.496;2022-10-16T08:01:16;2.20;;;1.60;;
6868;SDS011;3473;42.604;23.496;2022-10-16T08:02:48;2.47;;;1.70;;
6868;SDS011;3473;42.604;23.496;2022-10-16T08:04:20;2.83;;;1.97;;
6868;SDS011;3473;42.604;23.496;2022-10-16T08:05:52;2.97;;;1.60;;
6868;SDS011;3473;42.604;23.496;2022-10-16T08:07:23;1.53;;;1.40;;
6868;SDS011;3473;42.604;23.496;2022-10-16T08:08:55;2.67;;;1.53;;
6868;SDS011;3473;42.604;23.496;2022-10-16T08:10:26;2.20;;;1.50;;
6868;SDS011;3473;42.604;23.496;2022-10-16T08:11:58;1.50;;;1.30;;
6868;SDS011;3473;42.604;23.496;2022-10-16T08:13:30;2.67;;;1.67;;
6868;SDS011;3473;42.604;23.496;2022-10-16T08:15:02;3.10;;;1.50;;
6868;SDS011;3473;42.604;23.496;2022-10-16T08:16:33;2.13;;;1.70;;
6868;SDS011;3473;42.604;23.496;2022-10-16T08:18:05;2.77;;;1.40;;
6868;SDS011;3473;42.604;23.496;2022-10-16T08:19:36;4.43;;;1.60;;
6868;SDS011;3473;42.604;23.496;2022-10-16T08:21:12;2.13;;;1.40;;
6868;SDS011;3473;42.604;23.496;2022-10-16T08:22:44;4.47;;;1.90;;
6868;SDS011;3473;42.604;23.496;2022-10-16T08:24:15;2.80;;;1.57;;
6868;SDS011;3473;42.604;23.496;2022-10-16T08:25:47;1.77;;;1.50;;
6868;SDS011;3473;42.604;23.496;2022-10-16T08:27:17;2.97;;;1.87;;
6868;SDS011;3473;42.604;23.496;2022-10-16T08:28:49;1.60;;;1.23;;
6868;SDS011;3473;42.604;23.496;2022-10-16T08:30:21;2.20;;;1.70;;
6868;SDS011;3473;42.604;23.496;2022-10-16T08:31:53;2.53;;;1.43;;
6868;SDS011;3473;42.604;23.496;2022-10-16T08:33:24;1.30;;;1.20;;
6868;SDS011;3473;42.604;23.496;2022-10-16T08:34:56;1.80;;;1.40;;
6868;SDS011;3473;42.604;23.496;2022-10-16T08:36:29;3.57;;;1.83;;
6868;SDS011;3473;42.604;23.496;2022-10-16T08:38:02;2.40;;;1.83;;
6868;SDS011;3473;42.604;23.496;2022-10-16T08:39:34;2.27;;;1.40;;
6868;SDS011;3473;42.604;23.496;2022-10-16T08:41:20;1.60;;;1.50;;
6868;SDS011;3473;42.604;23.496;2022-10-16T08:43:04;2.33;;;1.30;;
6868;SDS011;3473;42.604;23.496;2022-10-16T08:44:46;2.50;;;1.20;;
6868;SDS011;3473;42.604;23.496;2022-10-16T08:46:25;1.40;;;1.20;;
6868;SDS011;3473;42.604;23.496;2022-10-16T08:48:01;1.50;;;1.10;;
6868;SDS011;3473;42.604;23.496;2022-10-16T08:49:37;1.43;;;1.20;;
6868;SDS011;3473;42.604;23.496;2022-10-16T08:51:15;1.63;;;1.40;;
6868;SDS011;3473;42.604;23.496;2022-10-16T08:52:50;2.07;;;1.23;;
6868;SDS011;3473;42.604;23.496;2022-10-16T08:54:24;2.00;;;1.40;;
6868;SDS011;3473;42.604;23.496;2022-10-16T08:55:57;1.77;;;1.50;;
6868;SDS011;3473;42.604;23.496;2022-10-16T08:57:29;1.30;;;1.20;;
6868;SDS011;3473;42.604;23.496;2022-10-16T08:59:03;3.03;;;1.60;;
6868;SDS011;3473;42.604;23.496;2022-10-16T09:00:38;2.13;;;1.30;;
6868;SDS011;3473;42.604;23.496;2022-10-16T09:02:20;1.87;;;1.33;;
6868;SDS011;3473;42.604;23.496;2022-10-16T09:04:04;1.47;;;1.17;;
6868;SDS011;3473;42.604;23.496;2022-10-16T09:05:43;2.00;;;1.50;;
6868;SDS011;3473;42.604;23.496;2022-10-16T09:07:16;1.60;;;1.30;;
6868;SDS011;3473;42.604;23.496;2022-10-16T09:08:57;3.63;;;1.53;;
6868;SDS011;3473;42.604;23.496;2022-10-16T09:10:34;2.03;;;1.30;;
6868;SDS011;3473;42.604;23.496;2022-10-16T09:12:09;5.30;;;1.70;;
6868;SDS011;3473;42.604;23.496;2022-10-16T09:13:45;1.90;;;1.40;;
6868;SDS011;3473;42.604;23.496;2022-10-16T09:15:22;1.53;;;1.43;;
6868;SDS011;3473;42.604;23.496;2022-10-16T09:16:56;2.63;;;1.70;;
6868;SDS011;3473;42.604;23.496;2022-10-16T09:18:29;2.87;;;1.80;;
6868;SDS011;3473;42.604;23.496;2022-10-16T09:20:18;2.03;;;1.63;;
6868;SDS011;3473;42.604;23.496;2022-10-16T09:21:50;3.50;;;1.80;;
6868;SDS011;3473;42.604;23.496;2022-10-16T09:23:25;2.00;;;1.60;;
6868;SDS011;3473;42.604;23.496;2022-10-16T09:24:59;2.83;;;1.50;;
6868;SDS011;3473;42.604;23.496;2022-10-16T09:26:31;2.00;;;1.50;;
6868;SDS011;3473;42.604;23.496;2022-10-16T09:28:03;3.40;;;1.87;;